createdAt,value
2023-02-13T00:04:29.422Z,15.90
2023-02-13T00:09:33.507Z,18.50
2023-02-13T00:14:36.779Z,15.05
2023-02-13T00:19:39.884Z,14.32
2023-02-13T00:24:44.062Z,15.63
2023-02-13T00:29:46.874Z,15.13
2023-02-13T00:34:49.674Z,14.88
2023-02-13T00:39:53.973Z,14.85
2023-02-13T00:44:56.759Z,14.30
2023-02-13T00:49:59.517Z,13.70
2023-02-13T00:55:03.636Z,16.00
2023-02-13T01:00:07.667Z,15.95
2023-02-13T01:05:10.534Z,16.13
2023-02-13T01:10:17.472Z,16.02
2023-02-13T01:15:20.566Z,13.80
2023-02-13T01:20:25.148Z,15.18
2023-02-13T01:25:29.598Z,16.63
2023-02-13T01:30:34.075Z,16.60
2023-02-13T01:35:36.819Z,13.80
2023-02-13T01:40:47.521Z,13.90
2023-02-13T01:45:54.055Z,16.13
2023-02-13T01:51:00.864Z,11.63
2023-02-13T01:56:10.795Z,13.05
2023-02-13T02:01:14.035Z,12.43
2023-02-13T02:06:22.775Z,14.27
2023-02-13T02:11:33.895Z,12.82
2023-02-13T02:16:37.147Z,15.80
2023-02-13T02:22:19.740Z,12.15
2023-02-13T02:27:55.664Z,11.27
2023-02-13T02:33:24.740Z,13.00
2023-02-13T02:38:41.945Z,11.05
2023-02-13T02:43:56.510Z,11.05
2023-02-13T02:49:23.858Z,11.90
2023-02-13T02:54:52.008Z,9.65
2023-02-13T03:00:14.595Z,12.18
2023-02-13T03:05:41.675Z,10.00
2023-02-13T03:11:02.208Z,13.75
2023-02-13T03:16:23.353Z,12.55
2023-02-13T03:22:02.438Z,12.68
2023-02-13T03:27:11.618Z,12.27
2023-02-13T03:32:25.005Z,12.63
2023-02-13T03:37:52.649Z,13.93
2023-02-13T03:42:59.442Z,15.05
2023-02-13T03:48:27.173Z,15.27
2023-02-13T03:53:35.905Z,18.77
2023-02-13T03:59:01.613Z,19.70
2023-02-13T04:04:11.080Z,20.77
2023-02-13T04:09:17.053Z,24.05
2023-02-13T04:14:23.366Z,29.83
2023-02-13T04:19:27.650Z,27.80
2023-02-13T04:24:32.069Z,32.13
2023-02-13T04:29:35.020Z,26.55
2023-02-13T04:34:37.882Z,29.45
2023-02-13T04:39:42.058Z,25.58
2023-02-13T04:44:44.872Z,23.02
2023-02-13T04:49:47.729Z,21.55
2023-02-13T04:54:52.122Z,23.50
2023-02-13T04:59:54.910Z,19.48
2023-02-13T05:04:57.760Z,16.90
2023-02-13T05:10:01.982Z,21.35
2023-02-13T05:15:05.254Z,14.98
2023-02-13T05:20:08.946Z,13.85
2023-02-13T05:25:13.177Z,15.65
2023-02-13T05:30:16.608Z,16.52
2023-02-13T05:35:19.727Z,14.20
2023-02-13T05:40:23.823Z,15.13
2023-02-13T05:45:26.596Z,17.83
2023-02-13T05:50:29.411Z,15.38
2023-02-13T05:55:33.685Z,15.88
2023-02-13T06:00:36.409Z,15.20
2023-02-13T06:05:39.135Z,14.60
2023-02-13T06:10:45.162Z,14.07
2023-02-13T06:15:48.248Z,13.93
2023-02-13T06:20:51.178Z,16.85
2023-02-13T06:25:55.299Z,14.23
2023-02-13T06:30:58.454Z,18.02
2023-02-13T06:36:01.771Z,17.95
2023-02-13T06:41:07.011Z,17.63
2023-02-13T06:46:10.071Z,19.00
2023-02-13T06:51:13.015Z,18.20
2023-02-13T06:56:17.171Z,18.90
2023-02-13T07:01:20.151Z,23.15
2023-02-13T07:06:23.021Z,22.02
2023-02-13T07:11:27.194Z,16.58
2023-02-13T07:16:30.094Z,6.88
2023-02-13T07:21:32.913Z,15.10
2023-02-13T07:26:37.075Z,14.27
2023-02-13T07:31:40.341Z,12.90
2023-02-13T07:36:43.099Z,14.60
2023-02-13T07:41:47.215Z,13.23
2023-02-13T07:46:52.304Z,12.45
2023-02-13T07:51:57.526Z,16.88
2023-02-13T07:57:01.663Z,17.80
2023-02-13T08:02:04.431Z,18.60
2023-02-13T08:07:07.202Z,20.58
2023-02-13T08:12:11.563Z,16.55
2023-02-13T08:17:14.511Z,19.38
2023-02-13T08:22:17.320Z,19.42
2023-02-13T08:27:21.785Z,20.42
2023-02-13T08:32:25.136Z,18.10
2023-02-13T08:37:27.887Z,19.35
2023-02-13T08:42:31.915Z,19.30
2023-02-13T08:47:34.635Z,16.30
2023-02-13T08:52:37.302Z,17.15
2023-02-13T08:57:41.444Z,13.98
2023-02-13T09:02:44.213Z,14.27
2023-02-13T09:07:47.072Z,13.63
2023-02-13T09:12:54.915Z,13.05
2023-02-13T09:17:57.675Z,12.68
2023-02-13T09:23:00.409Z,10.90
2023-02-13T09:28:04.560Z,10.73
2023-02-13T09:33:11.949Z,9.88
2023-02-13T09:38:14.734Z,11.30
2023-02-13T09:43:28.144Z,10.23
2023-02-13T09:48:34.489Z,9.90
2023-02-13T09:53:38.322Z,9.88
2023-02-13T09:58:46.953Z,10.73
2023-02-13T10:03:59.699Z,11.15
2023-02-13T10:14:17.674Z,9.38
2023-02-13T10:19:34.193Z,10.07
2023-02-13T10:24:43.040Z,8.88
2023-02-13T10:30:09.547Z,7.53
2023-02-13T10:35:21.905Z,10.60
2023-02-13T10:40:29.955Z,7.47
2023-02-13T10:46:04.257Z,10.60
2023-02-13T10:51:14.093Z,10.00
2023-02-13T10:56:26.175Z,10.82
2023-02-13T11:01:36.827Z,9.68
2023-02-13T11:06:43.987Z,11.57
2023-02-13T11:11:46.947Z,8.63
2023-02-13T11:16:57.897Z,9.70
2023-02-13T11:22:04.686Z,10.25
2023-02-13T11:27:12.850Z,9.57
2023-02-13T11:32:24.140Z,8.77
2023-02-13T11:37:29.911Z,9.15
2023-02-13T11:42:35.641Z,8.57
2023-02-13T11:47:42.216Z,8.23
2023-02-13T11:52:51.640Z,8.75
2023-02-13T11:57:58.606Z,7.70
2023-02-13T12:03:02.836Z,7.90
2023-02-13T12:08:10.191Z,7.63
2023-02-13T12:13:18.100Z,7.40
2023-02-13T12:18:30.984Z,7.80
2023-02-13T12:23:44.406Z,7.47
2023-02-13T12:28:57.725Z,10.77
2023-02-13T12:34:35.094Z,7.05
2023-02-13T12:39:42.196Z,10.68
2023-02-13T12:45:03.500Z,10.60
2023-02-13T12:50:30.860Z,10.63
2023-02-13T12:55:47.168Z,9.73
2023-02-13T13:01:01.031Z,8.38
2023-02-13T13:06:19.520Z,8.43
2023-02-13T13:11:47.922Z,7.05
2023-02-13T13:17:00.028Z,7.18
2023-02-13T13:22:08.549Z,7.18
2023-02-13T13:27:20.171Z,5.90
2023-02-13T13:32:24.059Z,6.57
2023-02-13T13:37:34.864Z,5.97
2023-02-13T13:42:43.211Z,6.63
2023-02-13T13:48:01.486Z,6.78
2023-02-13T13:53:12.149Z,5.60
2023-02-13T13:58:23.409Z,5.20
2023-02-13T14:03:38.967Z,6.80
2023-02-13T14:09:23.631Z,7.43
2023-02-13T14:14:55.134Z,8.73
2023-02-13T14:19:58.254Z,5.70
2023-02-13T14:25:03.683Z,9.50
2023-02-13T14:30:27.862Z,6.30
2023-02-13T14:35:33.649Z,5.65
2023-02-13T14:40:54.497Z,5.05
2023-02-13T14:46:05.121Z,5.65
2023-02-13T14:51:16.090Z,5.07
2023-02-13T14:56:22.533Z,7.75
2023-02-13T15:01:31.749Z,7.78
2023-02-13T15:06:39.454Z,6.65
2023-02-13T15:11:44.191Z,4.65
2023-02-13T15:16:52.498Z,7.20
2023-02-13T15:21:59.083Z,5.70
2023-02-13T15:27:04.341Z,5.13
2023-02-13T15:32:21.089Z,7.60
2023-02-13T15:37:25.948Z,7.65
2023-02-13T15:42:28.738Z,7.22
2023-02-13T15:47:34.553Z,6.45
2023-02-13T15:52:40.049Z,6.15
2023-02-13T15:57:42.890Z,7.15
2023-02-13T16:02:48.756Z,6.47
2023-02-13T16:07:53.049Z,7.50
2023-02-13T16:12:58.707Z,9.85
2023-02-13T16:18:06.238Z,8.10
2023-02-13T16:23:17.656Z,9.30
2023-02-13T16:28:22.913Z,18.48
2023-02-13T16:33:29.889Z,9.60
2023-02-13T16:38:36.444Z,10.95
2023-02-13T16:43:43.079Z,9.05
2023-02-13T16:48:49.652Z,12.02
2023-02-13T16:53:58.012Z,11.48
2023-02-13T16:59:21.743Z,10.93
2023-02-13T17:04:26.526Z,11.27
2023-02-13T17:09:29.828Z,10.77
2023-02-13T17:14:32.536Z,11.98
2023-02-13T17:19:36.698Z,16.08
2023-02-13T17:24:39.499Z,13.40
2023-02-13T17:29:42.280Z,13.13
2023-02-13T17:34:47.321Z,12.95
2023-02-13T17:39:50.580Z,11.60
2023-02-13T17:44:54.382Z,13.90
2023-02-13T17:50:08.552Z,13.50
2023-02-13T17:55:18.463Z,16.25
2023-02-13T18:00:22.339Z,15.50
2023-02-13T18:05:27.661Z,14.80
2023-02-13T18:10:32.972Z,11.95
2023-02-13T18:15:39.558Z,13.68
2023-02-13T18:20:44.170Z,18.15
2023-02-13T18:25:46.857Z,18.33
2023-02-13T18:30:49.713Z,19.20
2023-02-13T18:35:59.622Z,21.15
2023-02-13T18:41:03.679Z,26.70
2023-02-13T18:46:06.483Z,17.23
2023-02-13T18:51:10.672Z,20.77
2023-02-13T18:56:14.216Z,17.73
2023-02-13T19:01:19.474Z,17.77
2023-02-13T19:06:25.116Z,18.80
2023-02-13T19:11:28.664Z,14.10
2023-02-13T19:16:33.021Z,16.80
2023-02-13T19:21:38.973Z,17.45
2023-02-13T19:26:42.005Z,17.30
2023-02-13T19:31:45.350Z,16.35
2023-02-13T19:36:49.528Z,19.30
2023-02-13T19:41:52.232Z,15.95
2023-02-13T19:46:54.979Z,17.20
2023-02-13T19:51:59.098Z,20.02
2023-02-13T19:57:05.562Z,19.83
2023-02-13T20:02:14.414Z,19.65
2023-02-13T20:07:18.492Z,19.38
2023-02-13T20:12:21.248Z,20.90
2023-02-13T20:17:24.025Z,18.95
2023-02-13T20:22:28.127Z,20.50
2023-02-13T20:27:31.157Z,19.73
2023-02-13T20:32:34.121Z,24.92
2023-02-13T20:37:38.284Z,21.83
2023-02-13T20:42:41.046Z,20.15
2023-02-13T20:47:43.803Z,20.23
2023-02-13T20:52:47.884Z,19.80
2023-02-13T20:57:50.660Z,19.83
2023-02-13T21:02:53.431Z,21.42
2023-02-13T21:07:57.667Z,20.40
2023-02-13T21:13:00.368Z,22.83
2023-02-13T21:18:03.844Z,25.08
2023-02-13T21:23:07.909Z,21.92
2023-02-13T21:28:10.644Z,23.77
2023-02-13T21:33:13.371Z,23.40
2023-02-13T21:38:19.048Z,22.15
2023-02-13T21:43:23.126Z,23.00
2023-02-13T21:48:25.813Z,22.55
2023-02-13T21:53:31.997Z,21.15
2023-02-13T21:58:35.086Z,25.55
2023-02-13T22:03:37.813Z,21.30
2023-02-13T22:08:42.027Z,25.02
2023-02-13T22:13:44.727Z,26.17
2023-02-13T22:18:48.835Z,24.70
2023-02-13T22:23:53.042Z,24.92
2023-02-13T22:28:59.659Z,25.65
2023-02-13T22:34:04.411Z,28.55
2023-02-13T22:39:10.828Z,21.33
2023-02-13T22:44:13.538Z,22.48
2023-02-13T22:49:16.213Z,22.65
2023-02-13T22:54:20.218Z,27.85
2023-02-13T22:59:22.943Z,27.58
2023-02-13T23:04:25.792Z,26.88
2023-02-13T23:09:29.994Z,24.08
2023-02-13T23:14:32.830Z,21.98
2023-02-13T23:19:35.667Z,24.92
2023-02-13T23:24:40.252Z,24.67
2023-02-13T23:29:43.057Z,21.95
2023-02-13T23:34:45.848Z,26.73
2023-02-13T23:39:50.080Z,26.58
2023-02-13T23:44:52.947Z,23.88
2023-02-13T23:49:55.688Z,21.88
2023-02-13T23:54:59.857Z,20.75
